createdAt,value
2022-11-20T00:02:10.770Z,30.90
2022-11-20T00:04:38.571Z,33.80
2022-11-20T00:07:06.481Z,32.50
2022-11-20T00:09:34.313Z,32.10
2022-11-20T00:12:01.995Z,29.70
2022-11-20T00:14:29.945Z,34.50
2022-11-20T00:16:57.762Z,29.20
2022-11-20T00:19:25.619Z,31.10
2022-11-20T00:21:54.898Z,33.20
2022-11-20T00:24:22.778Z,30.70
2022-11-20T00:26:50.608Z,33.30
2022-11-20T00:29:18.627Z,31.10
2022-11-20T00:31:46.591Z,31.60
2022-11-20T00:34:14.662Z,31.50
2022-11-20T00:36:42.427Z,31.60
2022-11-20T00:39:10.218Z,32.50
2022-11-20T00:41:41.923Z,28.60
2022-11-20T00:44:09.759Z,27.50
2022-11-20T00:46:37.790Z,28.60
2022-11-20T00:49:05.734Z,31.70
2022-11-20T00:51:33.617Z,27.00
2022-11-20T00:54:03.174Z,28.30
2022-11-20T00:56:31.073Z,26.60
2022-11-20T00:59:00.723Z,24.80
2022-11-20T01:01:30.522Z,26.30
2022-11-20T01:03:59.604Z,27.50
2022-11-20T01:06:29.354Z,24.80
2022-11-20T01:08:58.679Z,27.50
2022-11-20T01:11:27.813Z,27.10
2022-11-20T01:13:57.378Z,25.60
2022-11-20T01:16:27.126Z,26.10
2022-11-20T01:18:57.241Z,29.50
2022-11-20T01:21:33.560Z,30.10
2022-11-20T01:24:01.718Z,28.10
2022-11-20T01:26:31.234Z,25.80
2022-11-20T01:28:59.591Z,27.90
2022-11-20T01:31:34.890Z,26.50
2022-11-20T01:34:07.726Z,26.20
2022-11-20T01:36:56.699Z,25.20
2022-11-20T01:39:26.038Z,29.30
2022-11-20T01:42:15.067Z,31.00
2022-11-20T01:44:46.532Z,29.00
2022-11-20T01:47:16.957Z,28.30
2022-11-20T01:49:51.203Z,27.40
2022-11-20T01:52:25.502Z,26.30
2022-11-20T01:54:55.701Z,29.10
2022-11-20T01:57:25.321Z,29.70
2022-11-20T01:59:58.017Z,30.20
2022-11-20T02:02:26.793Z,30.00
2022-11-20T02:04:56.566Z,29.60
2022-11-20T02:07:24.784Z,28.50
2022-11-20T02:09:57.392Z,28.80
2022-11-20T02:12:45.395Z,31.70
2022-11-20T02:15:13.255Z,25.40
2022-11-20T02:17:41.085Z,30.80
2022-11-20T02:20:11.732Z,34.30
2022-11-20T02:22:53.187Z,35.30
2022-11-20T02:25:21.089Z,32.60
2022-11-20T02:27:49.096Z,28.90
2022-11-20T02:30:17.194Z,31.30
2022-11-20T02:32:45.024Z,31.70
2022-11-20T02:35:19.032Z,34.80
2022-11-20T02:37:55.180Z,30.80
2022-11-20T02:40:23.321Z,32.70
2022-11-20T02:42:54.905Z,31.90
2022-11-20T02:45:23.878Z,31.70
2022-11-20T02:47:51.917Z,34.40
2022-11-20T02:50:19.884Z,31.70
2022-11-20T02:52:49.681Z,31.60
2022-11-20T02:55:17.923Z,29.20
2022-11-20T02:57:45.796Z,34.10
2022-11-20T03:00:13.876Z,33.70
2022-11-20T03:02:41.704Z,30.40
2022-11-20T03:05:09.497Z,30.60
2022-11-20T03:07:37.407Z,33.50
2022-11-20T03:10:05.597Z,34.50
2022-11-20T03:12:33.434Z,30.40
2022-11-20T03:15:01.183Z,26.20
2022-11-20T03:17:34.163Z,31.50
2022-11-20T03:20:01.877Z,34.10
2022-11-20T03:22:31.071Z,30.90
2022-11-20T03:24:58.932Z,33.70
2022-11-20T03:27:26.631Z,35.00
2022-11-20T03:29:54.403Z,33.20
2022-11-20T03:32:22.167Z,35.30
2022-11-20T03:34:50.124Z,30.60
2022-11-20T03:37:17.915Z,36.10
2022-11-20T03:39:45.775Z,32.30
2022-11-20T03:42:32.390Z,32.20
2022-11-20T03:45:00.188Z,34.80
2022-11-20T03:47:27.882Z,36.00
2022-11-20T03:49:55.629Z,34.20
2022-11-20T03:52:23.438Z,31.80
2022-11-20T03:54:51.149Z,32.60
2022-11-20T03:57:20.395Z,32.60
2022-11-20T03:59:52.007Z,32.00
2022-11-20T04:02:26.504Z,33.30
2022-11-20T04:04:54.608Z,35.90
2022-11-20T04:07:28.649Z,34.50
2022-11-20T04:09:56.378Z,35.30
2022-11-20T04:12:24.195Z,37.80
2022-11-20T04:14:51.973Z,33.20
2022-11-20T04:17:23.648Z,35.10
2022-11-20T04:19:51.367Z,39.10
2022-11-20T04:22:19.101Z,36.90
2022-11-20T04:24:46.921Z,34.40
2022-11-20T04:27:14.674Z,37.10
2022-11-20T04:29:42.625Z,37.40
2022-11-20T04:32:10.453Z,36.50
2022-11-20T04:34:38.325Z,34.40
2022-11-20T04:37:06.295Z,36.80
2022-11-20T04:39:34.407Z,33.90
2022-11-20T04:42:20.982Z,30.60
2022-11-20T04:44:48.765Z,38.40
2022-11-20T04:47:16.487Z,37.50
2022-11-20T04:49:44.282Z,39.90
2022-11-20T04:52:12.175Z,40.10
2022-11-20T04:54:40.078Z,37.20
2022-11-20T04:57:12.905Z,33.90
2022-11-20T04:59:42.436Z,37.80
2022-11-20T05:02:10.822Z,36.00
2022-11-20T05:04:38.927Z,37.50
2022-11-20T05:07:06.800Z,35.60
2022-11-20T05:09:35.026Z,36.20
2022-11-20T05:12:02.766Z,37.30
2022-11-20T05:14:30.621Z,36.40
2022-11-20T05:16:58.459Z,38.70
2022-11-20T05:19:26.223Z,39.80
2022-11-20T05:21:54.038Z,33.00
2022-11-20T05:24:21.991Z,33.40
2022-11-20T05:26:49.705Z,39.90
2022-11-20T05:29:21.608Z,38.90
2022-11-20T05:31:49.711Z,33.50
2022-11-20T05:34:17.395Z,34.10
2022-11-20T05:36:45.277Z,40.00
2022-11-20T05:39:13.101Z,33.50
2022-11-20T05:41:40.895Z,36.10
2022-11-20T05:44:11.158Z,37.50
2022-11-20T05:46:38.848Z,38.10
2022-11-20T05:49:06.524Z,39.60
2022-11-20T05:51:34.357Z,39.60
2022-11-20T05:54:02.087Z,35.80
2022-11-20T05:56:36.572Z,37.70
2022-11-20T05:59:04.422Z,32.90
2022-11-20T06:01:32.146Z,38.70
2022-11-20T06:04:03.708Z,36.50
2022-11-20T06:06:31.473Z,35.30
2022-11-20T06:08:59.976Z,35.10
2022-11-20T06:11:27.935Z,36.20
2022-11-20T06:13:55.670Z,36.30
2022-11-20T06:16:23.812Z,40.00
2022-11-20T06:18:51.597Z,41.50
2022-11-20T06:21:21.364Z,36.80
2022-11-20T06:23:50.155Z,36.80
2022-11-20T06:26:19.585Z,37.40
2022-11-20T06:28:47.785Z,34.00
2022-11-20T06:31:16.829Z,34.80
2022-11-20T06:33:44.832Z,35.00
2022-11-20T06:36:20.245Z,32.70
2022-11-20T06:38:51.981Z,36.80
2022-11-20T06:41:21.488Z,36.90
2022-11-20T06:43:49.771Z,37.30
2022-11-20T06:46:21.032Z,35.60
2022-11-20T06:48:49.485Z,37.00
2022-11-20T06:51:17.562Z,37.70
2022-11-20T06:53:45.269Z,33.20
2022-11-20T06:56:13.000Z,37.30
2022-11-20T06:58:47.575Z,37.40
2022-11-20T07:01:15.947Z,34.50
2022-11-20T07:03:43.936Z,34.70
2022-11-20T07:06:15.877Z,33.60
2022-11-20T07:08:43.754Z,36.90
2022-11-20T07:11:15.047Z,36.70
2022-11-20T07:13:43.032Z,37.00
2022-11-20T07:16:10.911Z,31.50
2022-11-20T07:18:39.419Z,38.80
2022-11-20T07:21:08.438Z,37.90
2022-11-20T07:23:36.848Z,35.60
2022-11-20T07:26:05.414Z,36.10
2022-11-20T07:28:33.543Z,36.30
2022-11-20T07:31:08.679Z,37.60
2022-11-20T07:33:43.111Z,37.50
2022-11-20T07:36:17.259Z,39.10
2022-11-20T07:38:49.005Z,41.70
2022-11-20T07:41:16.960Z,49.70
2022-11-20T07:43:44.950Z,44.00
2022-11-20T07:46:12.648Z,51.50
2022-11-20T07:48:41.003Z,39.20
2022-11-20T07:51:09.903Z,34.60
2022-11-20T07:53:37.798Z,32.50
2022-11-20T07:56:05.671Z,38.00
2022-11-20T07:58:35.443Z,36.20
2022-11-20T08:01:08.241Z,35.20
2022-11-20T08:03:40.877Z,35.20
2022-11-20T08:06:08.653Z,40.80
2022-11-20T08:08:42.325Z,41.00
2022-11-20T08:11:29.665Z,37.90
2022-11-20T08:14:13.021Z,43.00
2022-11-20T08:16:41.558Z,36.90
2022-11-20T08:19:18.190Z,38.40
2022-11-20T08:21:50.470Z,40.00
2022-11-20T08:24:19.840Z,42.00
2022-11-20T08:26:48.113Z,35.60
2022-11-20T08:29:15.994Z,35.10
2022-11-20T08:31:44.476Z,38.60
2022-11-20T08:34:32.493Z,39.80
2022-11-20T08:37:00.439Z,41.30
2022-11-20T08:39:28.561Z,40.40
2022-11-20T08:41:56.339Z,43.10
2022-11-20T08:44:24.314Z,39.60
2022-11-20T08:46:52.081Z,61.40
2022-11-20T08:49:20.499Z,40.90
2022-11-20T08:51:52.783Z,42.10
2022-11-20T08:54:22.846Z,40.80
2022-11-20T08:56:50.538Z,40.90
2022-11-20T08:59:43.473Z,59.80
2022-11-20T09:02:06.677Z,40.00
2022-11-20T09:04:34.897Z,44.20
2022-11-20T09:07:03.058Z,37.90
2022-11-20T09:09:31.033Z,36.00
2022-11-20T09:11:58.906Z,41.20
2022-11-20T09:14:30.155Z,46.00
2022-11-20T09:16:58.306Z,39.00
2022-11-20T09:19:40.538Z,41.00
2022-11-20T09:22:09.265Z,43.00
2022-11-20T09:24:40.513Z,39.50
2022-11-20T09:27:08.480Z,49.70
2022-11-20T09:29:36.303Z,46.20
2022-11-20T09:32:05.360Z,39.20
2022-11-20T09:34:33.094Z,40.20
2022-11-20T09:37:03.176Z,50.20
2022-11-20T09:39:35.079Z,40.60
2022-11-20T09:42:21.181Z,40.10
2022-11-20T09:44:49.254Z,37.60
2022-11-20T09:47:23.155Z,51.60
2022-11-20T09:50:13.659Z,46.20
2022-11-20T09:52:54.252Z,42.20
2022-11-20T09:55:22.559Z,39.70
2022-11-20T09:57:53.158Z,39.50
2022-11-20T10:00:22.462Z,35.50
2022-11-20T10:02:56.623Z,34.80
2022-11-20T10:05:43.695Z,33.90
2022-11-20T10:08:21.496Z,39.30
2022-11-20T10:11:03.314Z,39.30
2022-11-20T10:13:47.525Z,38.50
2022-11-20T10:16:27.788Z,32.90
2022-11-20T10:19:02.849Z,33.80
2022-11-20T10:21:39.968Z,41.80
2022-11-20T10:24:29.218Z,41.00
2022-11-20T10:27:00.105Z,38.40
2022-11-20T10:29:34.174Z,40.30
2022-11-20T10:32:21.686Z,37.60
2022-11-20T10:35:19.475Z,40.70
2022-11-20T10:37:48.841Z,43.00
2022-11-20T10:40:19.494Z,40.70
2022-11-20T10:42:54.873Z,38.50
2022-11-20T10:45:42.918Z,38.00
2022-11-20T10:48:13.271Z,44.20
2022-11-20T10:50:45.419Z,44.40
2022-11-20T10:53:19.352Z,42.70
2022-11-20T10:58:17.925Z,39.20
2022-11-20T11:00:46.215Z,41.40
2022-11-20T11:03:34.270Z,40.00
2022-11-20T11:06:09.169Z,44.00
2022-11-20T11:08:59.664Z,40.70
2022-11-20T11:11:29.633Z,44.20
2022-11-20T11:14:07.444Z,44.60
2022-11-20T11:16:52.685Z,40.00
2022-11-20T11:19:20.815Z,36.10
2022-11-20T11:21:55.191Z,38.00
2022-11-20T11:24:41.595Z,37.90
2022-11-20T11:27:18.045Z,45.50
2022-11-20T11:29:50.617Z,38.60
2022-11-20T11:32:19.461Z,37.70
2022-11-20T11:34:59.819Z,41.10
2022-11-20T11:37:29.710Z,36.40
2022-11-20T11:40:23.516Z,40.30
2022-11-20T11:42:51.390Z,45.40
2022-11-20T11:45:19.209Z,40.50
2022-11-20T11:47:49.253Z,51.90
2022-11-20T11:50:19.270Z,37.70
2022-11-20T11:52:49.618Z,37.60
2022-11-20T11:55:37.835Z,37.80
2022-11-20T11:58:24.547Z,36.90
2022-11-20T12:01:02.122Z,42.90
2022-11-20T12:03:37.703Z,53.20
2022-11-20T12:06:24.699Z,52.90
2022-11-20T12:09:02.198Z,46.50
2022-11-20T12:11:33.017Z,51.30
2022-11-20T12:14:09.139Z,41.40
2022-11-20T12:16:38.002Z,41.20
2022-11-20T12:19:14.798Z,53.20
2022-11-20T12:22:04.238Z,42.80
2022-11-20T12:24:39.033Z,48.30
2022-11-20T12:27:19.751Z,45.50
2022-11-20T12:30:06.910Z,48.00
2022-11-20T12:32:41.422Z,46.80
2022-11-20T12:35:21.250Z,62.40
2022-11-20T12:37:58.785Z,45.10
2022-11-20T12:40:34.066Z,40.20
2022-11-20T12:43:38.326Z,39.50
2022-11-20T12:46:15.176Z,50.40
2022-11-20T12:48:48.120Z,53.70
2022-11-20T12:51:35.010Z,41.30
2022-11-20T12:54:10.682Z,37.40
2022-11-20T12:56:51.462Z,47.40
2022-11-20T12:59:19.446Z,44.80
2022-11-20T13:01:53.012Z,44.70
2022-11-20T13:04:27.609Z,55.40
2022-11-20T13:06:56.002Z,41.10
2022-11-20T13:09:24.602Z,42.50
2022-11-20T13:12:12.113Z,37.50
2022-11-20T13:15:01.788Z,41.20
2022-11-20T13:17:42.911Z,41.50
2022-11-20T13:20:15.087Z,38.80
2022-11-20T13:22:47.171Z,53.30
2022-11-20T13:25:25.438Z,64.80
2022-11-20T13:27:53.229Z,51.60
2022-11-20T13:30:31.072Z,55.10
2022-11-20T13:33:07.673Z,50.40
2022-11-20T13:35:37.611Z,49.00
2022-11-20T13:38:15.397Z,45.70
2022-11-20T13:40:57.046Z,45.10
2022-11-20T13:43:27.450Z,50.20
2022-11-20T13:46:02.534Z,45.70
2022-11-20T13:48:32.218Z,49.10
2022-11-20T13:51:12.365Z,55.40
2022-11-20T13:53:40.132Z,46.10
2022-11-20T13:56:17.060Z,43.20
2022-11-20T13:58:52.917Z,46.20
2022-11-20T14:01:31.208Z,47.70
2022-11-20T14:04:10.307Z,41.70
2022-11-20T14:06:45.838Z,45.40
2022-11-20T14:09:14.645Z,45.10
2022-11-20T14:11:48.960Z,45.90
2022-11-20T14:14:18.401Z,46.10
2022-11-20T14:16:46.665Z,47.00
2022-11-20T14:19:20.923Z,46.00
2022-11-20T14:21:49.670Z,44.40
2022-11-20T14:24:22.047Z,42.90
2022-11-20T14:26:51.223Z,55.60
2022-11-20T14:29:20.264Z,41.90
2022-11-20T14:31:53.823Z,39.60
2022-11-20T14:34:33.061Z,37.50
2022-11-20T14:37:05.442Z,39.80
2022-11-20T14:39:37.121Z,33.30
2022-11-20T14:42:15.322Z,35.80
2022-11-20T14:44:43.941Z,33.60
2022-11-20T14:47:13.191Z,37.80
2022-11-20T14:49:41.766Z,36.00
2022-11-20T14:52:12.681Z,34.80
2022-11-20T14:54:50.979Z,37.90
2022-11-20T14:57:28.239Z,34.60
2022-11-20T15:00:05.030Z,33.40
2022-11-20T15:02:33.190Z,35.50
2022-11-20T15:05:04.358Z,40.40
2022-11-20T15:07:35.446Z,37.20
2022-11-20T15:10:09.476Z,65.90
2022-11-20T15:12:43.944Z,49.10
2022-11-20T15:15:13.227Z,43.80
2022-11-20T15:17:41.555Z,43.20
2022-11-20T15:20:17.051Z,34.80
2022-11-20T15:22:45.094Z,40.20
2022-11-20T15:25:17.787Z,34.40
2022-11-20T15:27:46.526Z,41.00
2022-11-20T15:30:18.806Z,34.20
2022-11-20T15:32:47.392Z,37.80
2022-11-20T15:35:15.785Z,42.80
2022-11-20T15:37:43.998Z,40.80
2022-11-20T15:40:12.158Z,31.80
2022-11-20T15:43:01.639Z,38.30
2022-11-20T15:45:34.754Z,39.40
2022-11-20T15:48:03.401Z,38.40
2022-11-20T15:50:37.191Z,36.10
2022-11-20T15:53:06.620Z,37.40
2022-11-20T15:55:34.382Z,40.20
2022-11-20T15:58:02.115Z,39.70
2022-11-20T16:00:29.861Z,47.60
2022-11-20T16:02:57.577Z,35.50
2022-11-20T16:05:28.544Z,35.80
2022-11-20T16:07:56.730Z,36.90
2022-11-20T16:10:24.802Z,39.60
2022-11-20T16:13:11.835Z,36.00
2022-11-20T16:15:59.928Z,38.50
2022-11-20T16:18:27.622Z,36.90
2022-11-20T16:20:56.177Z,37.90
2022-11-20T16:23:24.010Z,32.70
2022-11-20T16:25:57.815Z,38.80
2022-11-20T16:28:25.804Z,32.80
2022-11-20T16:30:53.542Z,41.10
2022-11-20T16:33:21.310Z,75.10
2022-11-20T16:35:49.197Z,37.00
2022-11-20T16:38:16.955Z,39.70
2022-11-20T16:40:47.243Z,38.60
2022-11-20T16:43:15.156Z,36.40
2022-11-20T16:45:43.913Z,36.50
2022-11-20T16:48:13.380Z,33.60
2022-11-20T16:50:51.562Z,34.30
2022-11-20T16:53:20.376Z,32.50
2022-11-20T16:55:48.297Z,32.40
2022-11-20T16:58:16.410Z,38.10
2022-11-20T17:00:50.032Z,40.50
2022-11-20T17:03:19.410Z,40.80
2022-11-20T17:05:47.197Z,40.10
2022-11-20T17:08:14.785Z,39.70
2022-11-20T17:10:42.723Z,53.40
2022-11-20T17:13:11.200Z,44.60
2022-11-20T17:15:39.188Z,42.00
2022-11-20T17:18:06.868Z,41.70
2022-11-20T17:20:45.363Z,56.40
2022-11-20T17:23:16.931Z,68.70
2022-11-20T17:25:47.027Z,56.80
2022-11-20T17:28:14.807Z,53.80
2022-11-20T17:30:42.744Z,49.80
2022-11-20T17:33:10.416Z,48.90
2022-11-20T17:35:38.106Z,63.60
2022-11-20T17:38:05.766Z,51.00
2022-11-20T17:40:33.546Z,49.50
2022-11-20T17:43:01.267Z,50.70
2022-11-20T17:45:29.236Z,50.20
2022-11-20T17:47:57.110Z,56.00
2022-11-20T17:50:24.986Z,56.50
2022-11-20T17:52:53.611Z,57.50
2022-11-20T17:55:21.338Z,68.00
2022-11-20T17:58:02.888Z,105.80
2022-11-20T18:00:31.770Z,140.90
2022-11-20T18:02:59.799Z,109.10
2022-11-20T18:05:33.795Z,74.70
2022-11-20T18:08:01.792Z,64.10
2022-11-20T18:10:30.477Z,69.50
2022-11-20T18:12:58.555Z,59.40
2022-11-20T18:15:26.590Z,67.10
2022-11-20T18:17:55.171Z,61.70
2022-11-20T18:20:32.170Z,55.10
2022-11-20T18:23:09.714Z,56.80
2022-11-20T18:25:47.504Z,63.60
2022-11-20T18:28:22.334Z,59.30
2022-11-20T18:30:50.257Z,56.90
2022-11-20T18:33:18.831Z,51.00
2022-11-20T18:35:46.626Z,56.90
2022-11-20T18:38:15.094Z,58.70
2022-11-20T18:40:44.299Z,58.20
2022-11-20T18:43:31.558Z,56.30
2022-11-20T18:46:04.240Z,56.90
2022-11-20T18:48:38.659Z,54.20
2022-11-20T18:53:36.108Z,59.40
2022-11-20T18:56:05.868Z,54.90
2022-11-20T18:58:34.040Z,103.00
2022-11-20T19:01:06.830Z,83.50
2022-11-20T19:03:35.123Z,70.30
2022-11-20T19:06:03.110Z,70.60
2022-11-20T19:08:34.577Z,61.40
2022-11-20T19:11:06.966Z,72.30
2022-11-20T19:13:37.064Z,81.60
2022-11-20T19:16:14.851Z,58.60
2022-11-20T19:18:43.879Z,57.20
2022-11-20T19:21:14.016Z,57.90
2022-11-20T19:23:42.470Z,57.50
2022-11-20T19:26:10.535Z,54.50
2022-11-20T19:28:38.885Z,53.70
2022-11-20T19:31:11.056Z,54.10
2022-11-20T19:33:39.912Z,60.10
2022-11-20T19:36:18.934Z,67.50
2022-11-20T19:38:50.439Z,68.60
2022-11-20T19:41:20.489Z,71.30
2022-11-20T19:43:50.122Z,72.60
2022-11-20T19:46:22.229Z,75.50
2022-11-20T19:48:50.732Z,84.30
2022-11-20T19:51:50.236Z,87.10
2022-11-20T19:54:18.584Z,100.10
2022-11-20T19:56:49.705Z,95.50
2022-11-20T19:59:18.227Z,85.60
2022-11-20T20:01:46.931Z,83.80
2022-11-20T20:04:15.352Z,81.70
2022-11-20T20:06:45.298Z,78.40
2022-11-20T20:09:14.052Z,74.20
2022-11-20T20:11:44.874Z,67.70
2022-11-20T20:14:14.782Z,62.80
2022-11-20T20:16:49.759Z,58.10
2022-11-20T20:19:18.561Z,63.90
2022-11-20T20:21:47.903Z,59.30
2022-11-20T20:24:15.656Z,62.10
2022-11-20T20:26:43.695Z,60.50
2022-11-20T20:29:11.456Z,59.10
2022-11-20T20:31:39.799Z,61.80
2022-11-20T20:34:07.780Z,58.40
2022-11-20T20:36:35.540Z,60.10
2022-11-20T20:39:03.546Z,63.70
2022-11-20T20:41:31.819Z,64.40
2022-11-20T20:44:19.784Z,70.60
2022-11-20T20:46:47.501Z,71.00
2022-11-20T20:49:15.297Z,68.30
2022-11-20T20:51:43.111Z,71.70
2022-11-20T20:54:17.117Z,68.20
2022-11-20T20:56:47.191Z,69.70
2022-11-20T20:59:14.934Z,65.20
2022-11-20T21:01:42.917Z,84.70
2022-11-20T21:04:11.523Z,68.80
2022-11-20T21:06:39.715Z,62.00
2022-11-20T21:09:07.515Z,63.00
2022-11-20T21:11:35.434Z,58.10
2022-11-20T21:14:03.153Z,59.80
2022-11-20T21:16:41.137Z,65.70
2022-11-20T21:19:08.975Z,93.10
2022-11-20T21:21:55.859Z,69.40
2022-11-20T21:24:23.799Z,59.90
2022-11-20T21:26:52.442Z,56.30
2022-11-20T21:29:20.914Z,60.80
2022-11-20T21:31:48.966Z,63.80
2022-11-20T21:34:17.197Z,50.60
2022-11-20T21:36:47.713Z,61.80
2022-11-20T21:39:15.877Z,55.70
2022-11-20T21:41:43.665Z,59.40
2022-11-20T21:47:00.791Z,64.50
2022-11-20T21:49:28.739Z,73.70
2022-11-20T21:51:56.620Z,75.50
2022-11-20T21:54:24.647Z,66.40
2022-11-20T21:56:56.703Z,66.50
2022-11-20T21:59:24.561Z,64.70
2022-11-20T22:01:52.403Z,70.80
2022-11-20T22:04:21.547Z,66.60
2022-11-20T22:06:49.644Z,67.60
2022-11-20T22:09:17.719Z,66.70
2022-11-20T22:11:51.625Z,61.50
2022-11-20T22:14:23.198Z,63.00
2022-11-20T22:16:52.376Z,66.90
2022-11-20T22:19:20.950Z,61.60
2022-11-20T22:21:49.528Z,57.60
2022-11-20T22:24:18.841Z,63.50
2022-11-20T22:26:46.957Z,60.70
2022-11-20T22:29:15.907Z,58.20
2022-11-20T22:31:44.089Z,70.70
2022-11-20T22:34:13.213Z,65.70
2022-11-20T22:36:41.474Z,59.10
2022-11-20T22:39:13.172Z,63.70
2022-11-20T22:41:41.034Z,62.60
2022-11-20T22:44:08.849Z,63.50
2022-11-20T22:46:37.454Z,64.80
2022-11-20T22:49:06.648Z,60.90
2022-11-20T22:51:36.341Z,61.70
2022-11-20T22:54:04.666Z,57.10
2022-11-20T22:56:32.442Z,61.50
2022-11-20T22:59:00.791Z,63.60
2022-11-20T23:01:29.623Z,60.10
2022-11-20T23:04:02.251Z,54.90
2022-11-20T23:06:30.553Z,64.80
2022-11-20T23:08:58.404Z,62.60
2022-11-20T23:11:31.467Z,60.60
2022-11-20T23:14:00.661Z,53.30
2022-11-20T23:16:31.194Z,66.10
2022-11-20T23:19:00.487Z,65.00
2022-11-20T23:21:28.227Z,66.80
2022-11-20T23:23:57.361Z,72.50
2022-11-20T23:26:26.744Z,63.80
2022-11-20T23:28:56.246Z,70.30
2022-11-20T23:31:24.651Z,64.50
2022-11-20T23:33:52.438Z,68.80
2022-11-20T23:36:20.078Z,66.20
2022-11-20T23:38:47.739Z,68.20
2022-11-20T23:41:15.529Z,67.70
2022-11-20T23:43:43.407Z,59.90
2022-11-20T23:46:15.147Z,54.90
2022-11-20T23:48:45.316Z,51.90
2022-11-20T23:51:13.924Z,60.30
2022-11-20T23:53:41.710Z,63.90
2022-11-20T23:56:09.364Z,58.00
2022-11-20T23:58:38.037Z,63.70
